Dades meteomassalio
Diari Summary for Febrer 27, 2017 Units:  English    Metric   Both
« Previous Day
Next Day »
Diari Semanal Mensual Anual Personalitzat
  Maxima: Minima: Mijana:
Temperatura: TemperatureC °F 1.6 °F 10.3 °F
Rosada: DewpointC °F 0.5 °F 4.1 °F
Humitat: Humidity % 41 % 69 %
Velocitat del vent: WindSpeedKMH mph 0.0 mph 8.4 mph
Racha vent: WindSpeedGustKMH mph - -
Vent:- - WNW
Pressio: PressurehPa in 1011.4 in -
Pluja: 0.5 in    
Historical Graphs
 
 
Tabular Data for Febrer 27, 2017
Time Temperature Dew Point Pressure Wind Wind Speed Wind Gust Humidity Rainfall Rate (Hourly) solar Conditions
TemperatureC °F DewpointC °F PressurehPa in Calm     Humidity % HourlyPrecipMM in SolarRadiationWatts/m^2 W/m2 Conditions
00:00 4.6 °F 2.9 °F 1019.2 in Calm     89 % 0.0 in 0.0 W/m2 CLR
00:05 4.6 °F 2.7 °F 1019.2 in Calm     88 % 0.0 in 0.0 W/m2 CLR
00:10 4.4 °F 2.6 °F 1019.2 in Calm     88 % 0.0 in 0.0 W/m2 CLR
00:15 4.4 °F 2.6 °F 1019.2 in Calm     88 % 0.0 in 0.0 W/m2 CLR
00:20 4.3 °F 2.7 °F 1019.2 in Calm     89 % 0.0 in 0.0 W/m2 CLR
00:25 4.3 °F 2.4 °F 1019.2 in Calm     88 % 0.0 in 0.0 W/m2 CLR
00:30 4.2 °F 2.6 °F 1018.8 in Calm     89 % 0.0 in 0.0 W/m2 CLR
00:35 4.2 °F 2.6 °F 1018.8 in Calm     89 % 0.0 in 0.0 W/m2 CLR
00:40 4.2 °F 2.5 °F 1018.8 in Calm     89 % 0.0 in 0.0 W/m2 CLR
00:45 4.1 °F 2.4 °F 1018.8 in Calm     89 % 0.0 in 0.0 W/m2 CLR
00:50 3.9 °F 2.2 °F 1018.8 in Calm     89 % 0.0 in 0.0 W/m2 CLR
00:55 3.9 °F 2.2 °F 1018.8 in Calm     89 % 0.0 in 0.0 W/m2 CLR
01:00 3.8 °F 2.1 °F 1018.8 in Calm     89 % 0.0 in 0.0 W/m2 CLR
01:05 3.7 °F 2.1 °F 1018.8 in Calm     89 % 0.0 in 0.0 W/m2 CLR
01:10 3.8 °F 2.3 °F 1018.8 in Calm     90 % 0.0 in 0.0 W/m2 CLR
01:15 3.8 °F 2.3 °F 1018.8 in Calm     90 % 0.0 in 0.0 W/m2 CLR
01:20 3.9 °F 2.4 °F 1018.8 in Calm     90 % 0.0 in 0.0 W/m2 CLR
01:25 4.1 °F 2.6 °F 1018.8 in Calm     90 % 0.0 in 0.0 W/m2 CLR
01:30 3.9 °F 2.4 °F 1018.8 in Calm     90 % 0.0 in 0.0 W/m2 CLR
01:35 3.8 °F 2.3 °F 1018.8 in Calm     90 % 0.0 in 0.0 W/m2 CLR
01:40 3.6 °F 1.9 °F 1018.5 in Calm     89 % 0.0 in 0.0 W/m2 CLR
01:45 3.5 °F 2.0 °F 1018.5 in Calm     90 % 0.0 in 0.0 W/m2 CLR
01:50 3.4 °F 1.7 °F 1018.5 in Calm     89 % 0.0 in 0.0 W/m2 CLR
01:55 3.3 °F 1.8 °F 1018.5 in Calm     90 % 0.0 in 0.0 W/m2 CLR
02:00 3.2 °F 1.7 °F 1018.5 in Calm     90 % 0.0 in 0.0 W/m2 CLR
02:06 3.2 °F 1.7 °F 1018.5 in Calm     90 % 0.0 in 0.0 W/m2 CLR
02:11 3.2 °F 1.7 °F 1018.5 in Calm     90 % 0.0 in 0.0 W/m2 CLR
02:16 3.1 °F 1.6 °F 1018.5 in Calm     90 % 0.0 in 0.0 W/m2 CLR
02:21 2.9 °F 1.4 °F 1018.5 in Calm     90 % 0.0 in 0.0 W/m2 CLR
02:26 2.9 °F 1.4 °F 1018.5 in Calm     90 % 0.0 in 0.0 W/m2 CLR
02:31 2.8 °F 1.3 °F 1018.5 in Calm     90 % 0.0 in 0.0 W/m2 CLR
02:36 2.8 °F 1.4 °F 1018.5 in Calm     91 % 0.0 in 0.0 W/m2 CLR
02:41 2.8 °F 1.4 °F 1018.5 in Calm     91 % 0.0 in 0.0 W/m2 CLR
02:46 2.8 °F 1.5 °F 1018.2 in Calm     91 % 0.0 in 0.0 W/m2 CLR
02:51 3.0 °F 1.7 °F 1018.2 in Calm     91 % 0.0 in 0.0 W/m2 CLR
02:56 3.3 °F 2.2 °F 1018.2 in Calm     92 % 0.0 in 0.0 W/m2 CLR
03:01 3.3 °F 2.0 °F 1018.2 in Calm     91 % 0.0 in 0.0 W/m2 CLR
03:06 3.3 °F 1.9 °F 1018.2 in Calm     91 % 0.0 in 0.0 W/m2 CLR
03:11 3.2 °F 1.8 °F 1018.2 in Calm     91 % 0.0 in 0.0 W/m2 CLR
03:16 2.9 °F 1.6 °F 1018.2 in Calm     91 % 0.0 in 0.0 W/m2 CLR
03:21 2.9 °F 1.6 °F 1018.2 in Calm     91 % 0.0 in 0.0 W/m2 CLR
03:26 2.8 °F 1.5 °F 1017.8 in Calm     91 % 0.0 in 0.0 W/m2 CLR
03:36 2.9 °F 1.8 °F 1017.8 in Calm     92 % 0.0 in 0.0 W/m2 CLR
03:41 3.0 °F 1.8 °F 1017.8 in Calm     92 % 0.0 in 0.0 W/m2 CLR
03:46 2.9 °F 1.6 °F 1017.8 in Calm     91 % 0.0 in 0.0 W/m2 CLR
03:51 2.8 °F 1.5 °F 1017.8 in Calm     91 % 0.0 in 0.0 W/m2 CLR
03:56 2.8 °F 1.4 °F 1017.8 in Calm     91 % 0.0 in 0.0 W/m2 CLR
04:01 2.7 °F 1.3 °F 1017.8 in Calm     91 % 0.0 in 0.0 W/m2 CLR
04:06 2.6 °F 1.2 °F 1017.8 in Calm     91 % 0.0 in 0.0 W/m2 CLR
04:11 2.5 °F 1.2 °F 1017.8 in Calm     91 % 0.0 in 0.0 W/m2 CLR
04:16 2.4 °F 1.3 °F 1017.8 in Calm     92 % 0.0 in 0.0 W/m2 CLR
04:21 2.4 °F 1.2 °F 1017.8 in Calm     92 % 0.0 in 0.0 W/m2 CLR
04:26 2.4 °F 1.2 °F 1017.8 in Calm     92 % 0.0 in 0.0 W/m2 CLR
04:31 2.4 °F 1.2 °F 1017.8 in Calm     92 % 0.0 in 0.0 W/m2 CLR
04:36 2.6 °F 1.4 °F 1017.5 in Calm     92 % 0.0 in 0.0 W/m2 CLR
04:41 2.7 °F 1.6 °F 1017.5 in Calm     92 % 0.0 in 0.0 W/m2 CLR
04:46 2.7 °F 1.5 °F 1017.5 in Calm     92 % 0.0 in 0.0 W/m2 CLR
04:51 2.6 °F 1.4 °F 1017.5 in Calm     92 % 0.0 in 0.0 W/m2 CLR
04:56 2.4 °F 1.2 °F 1017.5 in Calm     92 % 0.0 in 0.0 W/m2 CLR
05:01 2.2 °F 0.8 °F 1017.5 in Calm     91 % 0.0 in 0.0 W/m2 CLR
05:06 2.1 °F 0.9 °F 1017.5 in Calm     92 % 0.0 in 0.0 W/m2 CLR
05:11 2.1 °F 0.9 °F 1017.5 in Calm     92 % 0.0 in 0.0 W/m2 CLR
05:16 2.3 °F 1.1 °F 1017.5 in Calm     92 % 0.0 in 0.0 W/m2 CLR
05:21 2.4 °F 1.4 °F 1017.5 in Calm     93 % 0.0 in 0.0 W/m2 CLR
05:26 2.3 °F 1.1 °F 1017.5 in Calm     92 % 0.0 in 0.0 W/m2 CLR
05:31 2.2 °F 1.0 °F 1017.5 in Calm     92 % 0.0 in 0.0 W/m2 CLR
05:36 2.3 °F 1.3 °F 1017.5 in Calm     93 % 0.0 in 0.0 W/m2 CLR
05:41 2.3 °F 1.2 °F 1017.5 in Calm     92 % 0.0 in 0.0 W/m2 CLR
05:46 2.3 °F 1.1 °F 1017.5 in Calm     92 % 0.0 in 0.0 W/m2 CLR
05:51 2.1 °F 0.9 °F 1017.5 in Calm     92 % 0.0 in 0.0 W/m2 CLR
05:56 2.1 °F 0.9 °F 1017.5 in Calm     92 % 0.0 in 0.0 W/m2 CLR
06:01 2.1 °F 0.9 °F 1017.5 in Calm     92 % 0.0 in 0.0 W/m2 CLR
06:06 2.2 °F 1.0 °F 1017.5 in Calm     92 % 0.0 in 0.0 W/m2 CLR
06:11 2.2 °F 1.0 °F 1017.5 in Calm     92 % 0.0 in 0.0 W/m2 CLR
06:16 2.3 °F 1.3 °F 1017.5 in Calm     93 % 0.0 in 0.0 W/m2 CLR
06:21 2.1 °F 0.9 °F 1017.5 in Calm     92 % 0.0 in 0.0 W/m2 CLR
06:26 2.1 °F 0.9 °F 1017.5 in Calm     92 % 0.0 in 0.0 W/m2 CLR
06:31 2.1 °F 0.9 °F 1017.5 in Calm     92 % 0.0 in 0.0 W/m2 CLR
06:36 2.0 °F 0.8 °F 1017.5 in Calm     92 % 0.0 in 0.0 W/m2 CLR
06:37 2.0 °F 0.8 °F 1017.5 in Calm     92 % 0.0 in 0.0 W/m2 CLR
06:42 1.9 °F 0.8 °F 1017.5 in Calm     92 % 0.0 in 0.0 W/m2 CLR
06:47 1.8 °F 0.7 °F 1017.5 in Calm     92 % 0.0 in 0.0 W/m2 CLR
06:52 1.7 °F 0.6 °F 1017.5 in Calm     92 % 0.0 in 0.0 W/m2 CLR
06:57 2.1 °F 1.1 °F 1017.5 in Calm     93 % 0.0 in 0.0 W/m2 CLR
07:02 2.1 °F 1.1 °F 1017.5 in Calm     93 % 0.0 in 0.0 W/m2 CLR
07:07 2.0 °F 0.8 °F 1017.5 in Calm     92 % 0.0 in 0.0 W/m2 CLR
07:12 1.8 °F 0.7 °F 1017.5 in Calm     92 % 0.0 in 0.0 W/m2 CLR
07:17 1.8 °F 0.7 °F 1017.5 in Calm     92 % 0.0 in 0.0 W/m2 CLR
07:22 1.8 °F 0.7 °F 1017.5 in Calm     92 % 0.0 in 0.0 W/m2 CLR
07:27 1.9 °F 0.9 °F 1017.5 in Calm     93 % 0.0 in 0.0 W/m2 OVC
07:32 1.9 °F 0.9 °F 1017.8 in Calm     93 % 0.0 in 0.0 W/m2 OVC
07:37 1.8 °F 0.6 °F 1017.5 in Calm     92 % 0.5 in 5.0 W/m2 RA
07:42 1.7 °F 0.5 °F 1017.8 in Calm     92 % 0.5 in 9.0 W/m2 BKN
07:47 1.6 °F 0.6 °F 1017.8 in Calm     93 % 0.5 in 12.0 W/m2 BKN
07:52 1.7 °F 0.7 °F 1017.5 in Calm     93 % 0.5 in 16.0 W/m2 BKN
07:57 1.8 °F 0.8 °F 1017.5 in Calm     93 % 0.5 in 19.0 W/m2 BKN
08:02 1.9 °F 0.9 °F 1017.5 in Calm     93 % 0.5 in 25.0 W/m2 BKN
08:07 2.1 °F 1.1 °F 1017.8 in Calm     93 % 0.5 in 32.0 W/m2 BKN
08:12 2.3 °F 1.3 °F 1017.8 in Calm     93 % 0.5 in 37.0 W/m2 BKN
08:17 2.6 °F 1.6 °F 1017.8 in Calm     93 % 0.5 in 46.0 W/m2 SCT
08:22 2.7 °F 1.7 °F 1017.8 in Calm     93 % 0.5 in 53.0 W/m2 SCT
08:27 2.8 °F 1.8 °F 1017.8 in Calm     93 % 0.5 in 77.0 W/m2 FEW
08:32 3.0 °F 2.0 °F 1017.8 in Calm     93 % 0.5 in 90.0 W/m2 CLR
08:37 3.3 °F 2.3 °F 1017.8 in Calm     93 % 0.0 in 90.0 W/m2 CLR
08:42 3.6 °F 2.6 °F 1017.8 in Calm     93 % 0.0 in 113.0 W/m2 CLR
08:47 3.8 °F 2.8 °F 1017.8 in Calm     93 % 0.0 in 118.0 W/m2 CLR
08:52 4.1 °F 2.9 °F 1017.8 in Calm     92 % 0.0 in 130.0 W/m2 CLR
08:57 4.4 °F 3.3 °F 1017.8 in Calm     92 % 0.0 in 141.0 W/m2 CLR
09:02 4.8 °F 3.7 °F 1017.8 in Calm     92 % 0.0 in 134.0 W/m2 CLR
09:07 5.3 °F 4.1 °F 1017.8 in Calm     92 % 0.0 in 195.0 W/m2 CLR
09:12 5.7 °F 4.4 °F 1017.8 in Calm     91 % 0.0 in 181.0 W/m2 CLR
09:17 6.1 °F 4.8 °F 1017.8 in Calm     91 % 0.0 in 232.0 W/m2 CLR
09:22 6.6 °F 4.9 °F 1017.8 in Calm     89 % 0.0 in 236.0 W/m2 CLR
09:27 7.1 °F 5.1 °F 1017.8 in Calm     87 % 0.0 in 241.0 W/m2 CLR
09:32 7.4 °F 5.3 °F 1017.8 in Calm     86 % 0.0 in 287.0 W/m2 CLR
09:37 7.9 °F 5.5 °F 1017.8 in Calm     85 % 0.0 in 230.0 W/m2 CLR
09:42 8.3 °F 5.6 °F 1017.8 in Calm     83 % 0.0 in 216.0 W/m2 CLR
09:47 8.6 °F 5.7 °F 1017.5 in Calm     82 % 0.0 in 295.0 W/m2 CLR
09:52 8.8 °F 5.9 °F 1017.8 in Calm     82 % 0.0 in 394.0 W/m2 CLR
09:57 9.3 °F 6.1 °F 1017.5 in Calm     80 % 0.0 in 443.0 W/m2 CLR
10:02 9.8 °F 6.5 °F 1017.5 in Calm     80 % 0.0 in 464.0 W/m2 CLR
10:07 10.2 °F 6.6 °F 1017.5 in Calm     78 % 0.0 in 482.0 W/m2 CLR
10:12 10.6 °F 6.7 °F 1017.5 in ESE 3.7 mph 3.7 mph 77 % 0.0 in 385.0 W/m2 CLR
10:17 10.8 °F 6.9 °F 1017.5 in Calm     77 % 0.0 in 341.0 W/m2 CLR
10:23 11.2 °F 7.3 °F 1017.5 in WNW 6.4 mph 6.4 mph 77 % 0.0 in 292.0 W/m2 CLR
10:28 11.8 °F 7.6 °F 1017.5 in NW 12.9 mph 12.9 mph 75 % 0.0 in 308.0 W/m2 CLR
10:33 12.4 °F 7.5 °F 1017.5 in NNW 16.7 mph 16.7 mph 72 % 0.0 in 406.0 W/m2 CLR
10:38 12.8 °F 7.7 °F 1017.2 in WNW 13.0 mph 13.0 mph 71 % 0.0 in 464.0 W/m2 CLR
10:43 13.1 °F 7.7 °F 1017.2 in WNW 13.0 mph 13.0 mph 70 % 0.0 in 469.0 W/m2 CLR
10:48 13.2 °F 7.8 °F 1017.2 in NNW 7.4 mph 7.4 mph 70 % 0.0 in 415.0 W/m2 CLR
10:53 13.4 °F 7.8 °F 1017.2 in WNW 13.0 mph 13.7 mph 69 % 0.0 in 496.0 W/m2 CLR
10:58 13.6 °F 7.8 °F 1017.2 in NW 13.0 mph 13.0 mph 68 % 0.0 in 499.0 W/m2 CLR
11:03 13.8 °F 8.0 °F 1017.2 in North 16.7 mph 16.7 mph 68 % 0.0 in 517.0 W/m2 CLR
11:08 13.6 °F 7.4 °F 1017.2 in NW 22.5 mph 22.5 mph 66 % 0.0 in 510.0 W/m2 CLR
11:13 13.5 °F 7.3 °F 1017.2 in NNW 22.2 mph 22.2 mph 66 % 0.0 in 524.0 W/m2 CLR
11:18 13.6 °F 7.6 °F 1017.2 in NW 31.5 mph 31.5 mph 67 % 0.0 in 524.0 W/m2 CLR
11:23 13.7 °F 7.7 °F 1017.2 in NW 22.2 mph 22.2 mph 67 % 0.0 in 533.0 W/m2 CLR
11:28 13.8 °F 7.3 °F 1016.8 in NW 27.8 mph 27.8 mph 65 % 0.0 in 550.0 W/m2 CLR
11:33 14.0 °F 7.7 °F 1016.8 in NW 20.4 mph 20.4 mph 66 % 0.0 in 563.0 W/m2 CLR
11:38 14.1 °F 7.6 °F 1016.8 in NW 20.4 mph 20.4 mph 65 % 0.0 in 550.0 W/m2 CLR
11:43 14.1 °F 7.6 °F 1016.8 in WNW 24.1 mph 24.1 mph 65 % 0.0 in 541.0 W/m2 CLR
11:48 14.3 °F 8.0 °F 1016.8 in WNW 13.0 mph 13.0 mph 66 % 0.0 in 568.0 W/m2 CLR
11:53 14.4 °F 7.7 °F 1016.5 in WNW 27.8 mph 27.8 mph 64 % 0.0 in 575.0 W/m2 CLR
11:58 14.4 °F 7.7 °F 1016.5 in WNW 24.1 mph 24.1 mph 64 % 0.0 in 582.0 W/m2 CLR
12:03 14.6 °F 7.8 °F 1016.5 in NW 20.4 mph 20.4 mph 64 % 0.0 in 584.0 W/m2 CLR
12:08 14.7 °F 8.0 °F 1016.5 in NNW 20.9 mph 20.9 mph 64 % 0.0 in 594.0 W/m2 CLR
12:14 14.8 °F 8.1 °F 1016.5 in NW 22.2 mph 22.2 mph 64 % 0.0 in 603.0 W/m2 CLR
12:18 15.0 °F 7.8 °F 1016.5 in NNW 29.6 mph 29.6 mph 62 % 0.0 in 599.0 W/m2 CLR
12:24 15.0 °F 8.0 °F 1016.5 in NW 18.5 mph 18.5 mph 63 % 0.0 in 608.0 W/m2 CLR
12:29 15.1 °F 8.1 °F 1016.1 in NW 18.5 mph 18.5 mph 63 % 0.0 in 628.0 W/m2 CLR
12:34 15.2 °F 8.0 °F 1015.8 in NNW 9.3 mph 9.3 mph 62 % 0.0 in 621.0 W/m2 CLR
12:39 15.4 °F 8.2 °F 1015.8 in West 11.1 mph 11.1 mph 62 % 0.0 in 612.0 W/m2 CLR
12:44 15.4 °F 7.4 °F 1015.8 in West 20.9 mph 23.7 mph 59 % 0.0 in 504.0 W/m2 CLR
12:49 15.3 °F 7.8 °F 1015.8 in WSW 17.7 mph 17.7 mph 61 % 0.0 in 585.0 W/m2 CLR
12:54 15.5 °F 7.5 °F 1015.8 in WNW 24.1 mph 24.1 mph 59 % 0.0 in 584.0 W/m2 CLR
12:59 15.7 °F 8.2 °F 1015.5 in NW 16.7 mph 16.7 mph 61 % 0.0 in 621.0 W/m2 CLR
13:04 15.9 °F 8.4 °F 1015.5 in WNW 27.8 mph 27.8 mph 61 % 0.0 in 652.0 W/m2 CLR
13:09 16.1 °F 8.3 °F 1015.1 in WNW 22.5 mph 22.5 mph 60 % 0.0 in 659.0 W/m2 CLR
13:14 16.3 °F 8.3 °F 1015.1 in NW 20.4 mph 20.4 mph 59 % 0.0 in 643.0 W/m2 CLR
13:19 16.3 °F 8.1 °F 1015.1 in NW 22.5 mph 22.5 mph 58 % 0.0 in 649.0 W/m2 CLR
13:24 16.4 °F 7.3 °F 1014.8 in West 13.0 mph 13.0 mph 55 % 0.0 in 687.0 W/m2 CLR
13:29 16.6 °F 7.7 °F 1014.8 in West 30.6 mph 30.6 mph 56 % 0.0 in 666.0 W/m2 CLR
13:34 16.5 °F 6.9 °F 1014.4 in WNW 29.6 mph 29.6 mph 53 % 0.0 in 657.0 W/m2 CLR
13:39 16.8 °F 6.9 °F 1014.4 in WNW 13.0 mph 13.0 mph 52 % 0.0 in 670.0 W/m2 CLR
13:44 17.0 °F 7.1 °F 1014.4 in NNW 27.8 mph 27.8 mph 52 % 0.0 in 659.0 W/m2 CLR
13:49 17.1 °F 6.9 °F 1014.1 in NW 17.7 mph 17.7 mph 51 % 0.0 in 624.0 W/m2 CLR
13:54 17.3 °F 7.4 °F 1014.1 in West 18.5 mph 18.5 mph 52 % 0.0 in 659.0 W/m2 CLR
13:59 17.5 °F 6.9 °F 1014.1 in NW 9.3 mph 9.3 mph 50 % 0.0 in 708.0 W/m2 CLR
14:04 17.5 °F 6.7 °F 1014.1 in WNW 18.5 mph 18.5 mph 49 % 0.0 in 649.0 W/m2 CLR
14:09 17.5 °F 6.1 °F 1013.8 in NW 29.6 mph 29.6 mph 47 % 0.0 in 640.0 W/m2 CLR
14:14 17.6 °F 6.7 °F 1013.8 in West 27.8 mph 27.8 mph 49 % 0.0 in 633.0 W/m2 CLR
14:19 17.3 °F 6.5 °F 1013.8 in WNW 25.9 mph 25.9 mph 49 % 0.0 in 621.0 W/m2 CLR
14:24 17.2 °F 7.0 °F 1013.8 in WNW 20.4 mph 20.4 mph 51 % 0.0 in 610.0 W/m2 CLR
14:29 17.4 °F 6.8 °F 1013.4 in WNW 18.5 mph 18.5 mph 50 % 0.0 in 603.0 W/m2 CLR
14:34 17.3 °F 6.5 °F 1013.4 in NW 18.5 mph 18.5 mph 49 % 0.0 in 599.0 W/m2 CLR
14:39 17.4 °F 6.3 °F 1013.4 in West 16.1 mph 16.1 mph 48 % 0.0 in 596.0 W/m2 CLR
14:44 17.5 °F 5.7 °F 1013.4 in West 16.7 mph 16.7 mph 46 % 0.0 in 589.0 W/m2 CLR
14:49 17.7 °F 6.6 °F 1013.1 in West 11.1 mph 11.1 mph 48 % 0.0 in 584.0 W/m2 CLR
14:54 18.0 °F 6.5 °F 1013.1 in WNW 11.1 mph 11.1 mph 47 % 0.0 in 571.0 W/m2 CLR
14:59 18.1 °F 6.6 °F 1013.1 in WNW 13.0 mph 13.0 mph 47 % 0.0 in 563.0 W/m2 CLR
15:04 18.2 °F 7.0 °F 1013.1 in WNW 13.0 mph 13.0 mph 48 % 0.0 in 554.0 W/m2 CLR
15:09 18.2 °F 6.3 °F 1013.1 in West 11.3 mph 11.3 mph 46 % 0.0 in 543.0 W/m2 CLR
15:15 18.1 °F 6.3 °F 1012.8 in NW 9.7 mph 9.7 mph 46 % 0.0 in 536.0 W/m2 CLR
15:20 18.1 °F 6.3 °F 1012.8 in WNW 18.5 mph 18.5 mph 46 % 0.0 in 531.0 W/m2 CLR
15:25 18.2 °F 6.7 °F 1012.8 in NW 20.4 mph 20.4 mph 47 % 0.0 in 519.0 W/m2 CLR
15:30 18.2 °F 5.8 °F 1012.8 in WNW 13.0 mph 13.0 mph 44 % 0.0 in 510.0 W/m2 CLR
15:35 18.2 °F 6.1 °F 1012.8 in WNW 13.0 mph 13.0 mph 45 % 0.0 in 499.0 W/m2 CLR
15:40 18.3 °F 6.1 °F 1012.4 in NW 20.4 mph 20.4 mph 45 % 0.0 in 492.0 W/m2 CLR
15:45 18.2 °F 5.8 °F 1012.4 in WSW 5.6 mph 5.6 mph 44 % 0.0 in 478.0 W/m2 CLR
15:50 18.3 °F 5.8 °F 1012.4 in SW 13.0 mph 13.0 mph 44 % 0.0 in 469.0 W/m2 CLR
15:55 18.6 °F 5.4 °F 1012.4 in WNW 11.1 mph 11.9 mph 42 % 0.0 in 461.0 W/m2 CLR
16:00 18.5 °F 5.7 °F 1012.4 in West 11.1 mph 11.1 mph 43 % 0.0 in 450.0 W/m2 CLR
16:05 18.6 °F 5.4 °F 1012.1 in NW 9.7 mph 9.7 mph 42 % 0.0 in 434.0 W/m2 CLR
16:10 18.7 °F 5.6 °F 1012.1 in WNW 20.9 mph 20.9 mph 42 % 0.0 in 420.0 W/m2 CLR
16:15 18.5 °F 5.3 °F 1012.1 in West 13.0 mph 13.0 mph 42 % 0.0 in 406.0 W/m2 CLR
16:20 18.4 °F 5.6 °F 1012.1 in WNW 5.6 mph   43 % 0.0 in 390.0 W/m2 CLR
16:25 18.5 °F 5.0 °F 1012.1 in West 18.5 mph 18.5 mph 41 % 0.0 in 378.0 W/m2 CLR
16:30 18.4 °F 5.2 °F 1012.1 in WNW 5.6 mph 5.6 mph 42 % 0.0 in 362.0 W/m2 CLR
16:35 18.6 °F 5.7 °F 1012.1 in NNW 11.1 mph 11.1 mph 43 % 0.0 in 348.0 W/m2 CLR
16:40 18.6 °F 5.4 °F 1012.1 in NW 11.1 mph 11.1 mph 42 % 0.0 in 339.0 W/m2 CLR
16:45 18.5 °F 5.7 °F 1012.1 in WNW 5.6 mph 5.6 mph 43 % 0.0 in 322.0 W/m2 CLR
16:50 18.6 °F 5.4 °F 1011.7 in NW 16.7 mph 16.7 mph 42 % 0.0 in 308.0 W/m2 CLR
16:55 18.6 °F 5.4 °F 1011.7 in NW 18.5 mph 18.5 mph 42 % 0.0 in 294.0 W/m2 CLR
17:00 18.4 °F 5.3 °F 1011.7 in WNW 16.7 mph 16.7 mph 42 % 0.0 in 279.0 W/m2 CLR
17:05 18.5 °F 5.7 °F 1011.7 in NW 6.4 mph 6.4 mph 43 % 0.0 in 264.0 W/m2 CLR
17:10 18.6 °F 5.8 °F 1011.7 in West 12.9 mph 12.9 mph 43 % 0.0 in 248.0 W/m2 CLR
17:15 18.5 °F 5.7 °F 1011.7 in WNW 9.7 mph 9.7 mph 43 % 0.0 in 232.0 W/m2 CLR
17:20 18.4 °F 5.6 °F 1011.7 in NW 9.3 mph 9.3 mph 43 % 0.0 in 214.0 W/m2 CLR
17:25 18.3 °F 5.5 °F 1011.7 in WNW 13.0 mph 13.0 mph 43 % 0.0 in 193.0 W/m2 CLR
17:30 18.2 °F 5.8 °F 1011.7 in NW 5.6 mph 5.6 mph 44 % 0.0 in 176.0 W/m2 CLR
17:35 18.3 °F 5.8 °F 1011.4 in Calm     44 % 0.0 in 158.0 W/m2 CLR
17:40 18.3 °F 5.5 °F 1011.4 in NW 8.0 mph 8.0 mph 43 % 0.0 in 142.0 W/m2 CLR
17:45 18.3 °F 5.5 °F 1011.4 in WNW 9.7 mph 9.7 mph 43 % 0.0 in 123.0 W/m2 CLR
17:50 18.3 °F 5.5 °F 1011.4 in NW 8.0 mph 8.0 mph 43 % 0.0 in 109.0 W/m2 CLR
17:55 18.2 °F 5.4 °F 1011.4 in NW 7.4 mph 7.4 mph 43 % 0.0 in 95.0 W/m2 CLR
18:00 18.2 °F 5.4 °F 1011.4 in NNW 5.6 mph 5.6 mph 43 % 0.0 in 72.0 W/m2 FEW
18:05 18.1 °F 5.7 °F 1011.7 in NNW 11.1 mph 11.1 mph 44 % 0.0 in 56.0 W/m2 SCT
18:10 17.8 °F 5.4 °F 1011.7 in North 5.6 mph 5.6 mph 44 % 0.0 in 46.0 W/m2 SCT
18:15 17.7 °F 5.6 °F 1011.7 in North 5.6 mph   45 % 0.0 in 35.0 W/m2 BKN
18:20 17.6 °F 5.5 °F 1011.7 in Calm     45 % 0.0 in 26.0 W/m2 BKN
18:25 17.5 °F 5.7 °F 1011.7 in Calm     46 % 0.0 in 19.0 W/m2 BKN
18:30 17.2 °F 5.5 °F 1011.7 in Calm     46 % 0.0 in 14.0 W/m2 BKN
18:35 16.8 °F 5.4 °F 1012.1 in NW 4.8 mph 4.8 mph 47 % 0.0 in 11.0 W/m2 BKN
18:40 16.6 °F 5.5 °F 1012.1 in NNW 1.9 mph   48 % 0.0 in 9.0 W/m2 BKN
18:45 16.2 °F 5.5 °F 1012.1 in Calm     49 % 0.0 in 7.0 W/m2 BKN
18:50 16.0 °F 5.3 °F 1012.1 in WNW 5.6 mph 5.6 mph 49 % 0.0 in 0.0 W/m2 OVC
18:55 15.7 °F 5.3 °F 1012.1 in WNW 5.6 mph 5.6 mph 50 % 0.0 in 0.0 W/m2 OVC
19:00 15.4 °F 5.3 °F 1012.1 in Calm     51 % 0.0 in 0.0 W/m2 CLR
19:05 15.1 °F 5.1 °F 1012.1 in WNW 9.7 mph 9.7 mph 51 % 0.0 in 0.0 W/m2 CLR
19:10 14.9 °F 4.8 °F 1012.1 in NW 7.4 mph 7.4 mph 51 % 0.0 in 0.0 W/m2 CLR
19:15 14.8 °F 4.8 °F 1012.1 in WNW 7.4 mph 7.4 mph 51 % 0.0 in 0.0 W/m2 CLR
19:20 14.8 °F 4.7 °F 1012.4 in NW 5.6 mph 5.6 mph 51 % 0.0 in 0.0 W/m2 CLR
19:25 14.7 °F 4.6 °F 1012.4 in Calm     51 % 0.0 in 0.0 W/m2 CLR
19:30 14.8 °F 4.4 °F 1012.4 in Calm     50 % 0.0 in 0.0 W/m2 CLR
19:35 14.8 °F 4.4 °F 1012.8 in West 5.6 mph 5.6 mph 50 % 0.0 in 0.0 W/m2 CLR
19:40 14.8 °F 4.5 °F 1012.4 in WNW 7.4 mph 7.4 mph 50 % 0.0 in 0.0 W/m2 CLR
19:45 14.8 °F 4.2 °F 1012.4 in WNW 8.0 mph 8.0 mph 49 % 0.0 in 0.0 W/m2 CLR
19:50 14.8 °F 4.5 °F 1012.8 in WNW 9.3 mph 9.3 mph 50 % 0.0 in 0.0 W/m2 CLR
19:55 14.6 °F 4.3 °F 1012.8 in West 5.6 mph 5.6 mph 50 % 0.0 in 0.0 W/m2 CLR
20:00 14.6 °F 4.2 °F 1012.8 in West 14.8 mph 14.8 mph 50 % 0.0 in 0.0 W/m2 CLR
20:05 14.8 °F 4.2 °F 1012.8 in West 11.1 mph 11.1 mph 49 % 0.0 in 0.0 W/m2 CLR
20:10 14.8 °F 4.2 °F 1012.8 in WNW 11.1 mph 11.1 mph 49 % 0.0 in 0.0 W/m2 CLR
20:15 14.8 °F 4.4 °F 1012.8 in WNW 18.5 mph 18.5 mph 50 % 0.0 in 0.0 W/m2 CLR
20:20 14.9 °F 4.3 °F 1012.8 in WNW 22.2 mph 22.2 mph 49 % 0.0 in 0.0 W/m2 CLR
20:25 15.0 °F 4.4 °F 1012.8 in West 18.5 mph 18.5 mph 49 % 0.0 in 0.0 W/m2 CLR
20:30 15.0 °F 4.4 °F 1012.8 in WNW 29.6 mph 29.6 mph 49 % 0.0 in 0.0 W/m2 CLR
20:35 15.0 °F 4.4 °F 1012.8 in WNW 25.9 mph 25.9 mph 49 % 0.0 in 0.0 W/m2 CLR
20:40 14.8 °F 4.5 °F 1012.8 in West 27.8 mph 27.8 mph 50 % 0.0 in 0.0 W/m2 CLR
20:45 14.6 °F 4.3 °F 1012.8 in West 24.1 mph 24.1 mph 50 % 0.0 in 0.0 W/m2 CLR
20:50 14.4 °F 4.4 °F 1012.8 in WNW 25.7 mph 25.7 mph 51 % 0.0 in 0.0 W/m2 CLR
20:55 14.4 °F 4.4 °F 1012.8 in WNW 24.1 mph 24.1 mph 51 % 0.0 in 0.0 W/m2 CLR
21:00 14.3 °F 4.3 °F 1012.8 in West 24.1 mph 24.1 mph 51 % 0.0 in 0.0 W/m2 CLR
21:05 14.2 °F 4.2 °F 1012.8 in West 24.1 mph 24.1 mph 51 % 0.0 in 0.0 W/m2 CLR
21:10 14.2 °F 4.4 °F 1012.8 in WNW 24.1 mph 24.1 mph 52 % 0.0 in 0.0 W/m2 CLR
21:16 14.1 °F 4.3 °F 1013.1 in West 31.5 mph 31.5 mph 52 % 0.0 in 0.0 W/m2 CLR
21:20 14.1 °F 4.3 °F 1013.1 in WNW 24.1 mph 24.1 mph 52 % 0.0 in 0.0 W/m2 CLR
21:26 13.9 °F 4.2 °F 1013.1 in West 20.4 mph 20.4 mph 52 % 0.0 in 0.0 W/m2 CLR
21:31 13.8 °F 4.1 °F 1013.1 in West 24.1 mph 24.1 mph 52 % 0.0 in 0.0 W/m2 CLR
21:36 13.8 °F 4.1 °F 1013.4 in WSW 20.4 mph 20.4 mph 52 % 0.0 in 0.0 W/m2 CLR
21:41 13.8 °F 4.1 °F 1013.4 in WSW 20.4 mph 20.4 mph 52 % 0.0 in 0.0 W/m2 CLR
21:46 13.7 °F 4.1 °F 1013.4 in West 25.9 mph 25.9 mph 52 % 0.0 in 0.0 W/m2 CLR
21:51 13.7 °F 4.1 °F 1013.4 in West 24.1 mph 24.1 mph 52 % 0.0 in 0.0 W/m2 CLR
21:56 13.7 °F 4.1 °F 1013.4 in WNW 25.9 mph 25.9 mph 52 % 0.0 in 0.0 W/m2 CLR
22:01 13.7 °F 4.0 °F 1013.4 in West 22.2 mph 22.2 mph 52 % 0.0 in 0.0 W/m2 CLR
22:06 13.6 °F 4.2 °F 1013.4 in WSW 22.2 mph 22.2 mph 53 % 0.0 in 0.0 W/m2 CLR
22:11 13.3 °F 3.9 °F 1013.4 in West 22.2 mph 22.2 mph 53 % 0.0 in 0.0 W/m2 CLR
22:16 13.3 °F 4.2 °F 1013.4 in WSW 20.9 mph 20.9 mph 54 % 0.0 in 0.0 W/m2 CLR
22:21 13.1 °F 3.9 °F 1013.4 in WSW 14.8 mph 14.8 mph 54 % 0.0 in 0.0 W/m2 CLR
22:26 12.9 °F 4.1 °F 1013.4 in WSW 5.6 mph 5.6 mph 55 % 0.0 in 0.0 W/m2 CLR
22:31 12.7 °F 4.1 °F 1013.4 in SW 14.8 mph 14.8 mph 56 % 0.0 in 0.0 W/m2 CLR
22:36 12.8 °F 4.3 °F 1013.4 in West 31.5 mph 31.5 mph 56 % 0.0 in 0.0 W/m2 CLR
22:41 13.2 °F 4.3 °F 1013.4 in West 22.2 mph 22.2 mph 55 % 0.0 in 0.0 W/m2 CLR
22:46 13.2 °F 4.3 °F 1013.4 in West 18.5 mph 18.5 mph 55 % 0.0 in 0.0 W/m2 CLR
22:51 13.0 °F 4.2 °F 1013.4 in WSW 5.6 mph 5.6 mph 55 % 0.0 in 0.0 W/m2 CLR
22:56 12.7 °F 4.2 °F 1013.4 in WSW 5.6 mph 5.6 mph 56 % 0.0 in 0.0 W/m2 CLR
23:01 12.3 °F 4.1 °F 1013.1 in WSW 5.6 mph 5.6 mph 57 % 0.0 in 0.0 W/m2 CLR
23:06 12.1 °F 4.1 °F 1013.1 in WSW 5.6 mph 5.6 mph 58 % 0.0 in 0.0 W/m2 CLR
23:11 11.9 °F 4.1 °F 1013.1 in WSW 5.6 mph 5.6 mph 59 % 0.0 in 0.0 W/m2 CLR
23:16 11.8 °F 4.1 °F 1013.1 in Calm     59 % 0.0 in 0.0 W/m2 CLR
23:21 11.8 °F 4.1 °F 1013.1 in WSW 5.6 mph 5.6 mph 59 % 0.0 in 0.0 W/m2 CLR
23:26 11.9 °F 4.1 °F 1013.1 in Calm     59 % 0.0 in 0.0 W/m2 CLR
23:31 11.9 °F 4.2 °F 1012.8 in WSW 11.1 mph 11.1 mph 59 % 0.0 in 0.0 W/m2 CLR
23:36 12.2 °F 4.2 °F 1013.1 in West 5.6 mph 5.6 mph 58 % 0.0 in 0.0 W/m2 CLR
23:37 12.3 °F 4.0 °F 1012.8 in West 5.6 mph 5.6 mph 57 % 0.0 in 0.0 W/m2 CLR
23:42 12.4 °F 4.2 °F 1012.8 in West 14.8 mph 14.8 mph 57 % 0.0 in 0.0 W/m2 CLR
23:47 12.6 °F 4.1 °F 1012.8 in WSW 11.1 mph 11.1 mph 56 % 0.0 in 0.0 W/m2 CLR
23:52 12.6 °F 4.0 °F 1012.8 in West 7.4 mph 7.4 mph 56 % 0.0 in 0.0 W/m2 CLR
23:57 12.4 °F 4.1 °F 1012.8 in WSW 6.4 mph 6.4 mph 57 % 0.0 in 0.0 W/m2 CLR
Lo Temps de Massalio
Compliments of Weather Underground - 1.25 mb